createdAt,value
2022-10-17T00:04:54.121Z,14.32
2022-10-17T00:09:56.553Z,14.40
2022-10-17T00:14:58.910Z,14.25
2022-10-17T00:20:01.961Z,14.37
2022-10-17T00:25:04.887Z,14.50
2022-10-17T00:30:10.275Z,14.55
2022-10-17T00:35:12.831Z,14.56
2022-10-17T00:40:15.276Z,14.46
2022-10-17T00:45:30.548Z,14.36
2022-10-17T00:50:34.708Z,14.31
2022-10-17T00:55:51.254Z,14.25
2022-10-17T01:00:53.511Z,14.24
2022-10-17T01:05:56.238Z,14.23
2022-10-17T01:11:07.699Z,14.17
2022-10-17T01:16:16.422Z,14.02
2022-10-17T01:21:42.914Z,14.00
2022-10-17T01:26:45.747Z,14.01
2022-10-17T01:32:29.070Z,13.82
2022-10-17T01:37:40.390Z,13.80
2022-10-17T01:43:06.177Z,13.86
2022-10-17T01:48:16.005Z,13.71
2022-10-17T01:53:36.806Z,13.70
2022-10-17T01:58:47.681Z,13.83
2022-10-17T02:03:52.383Z,13.74
2022-10-17T02:08:54.683Z,13.72
2022-10-17T02:14:21.427Z,13.67
2022-10-17T02:19:31.595Z,13.82
2022-10-17T02:24:42.917Z,13.80
2022-10-17T02:29:54.936Z,13.62
2022-10-17T02:35:02.843Z,13.67
2022-10-17T02:40:07.609Z,13.86
2022-10-17T02:45:11.591Z,13.86
2022-10-17T02:50:14.178Z,13.78
2022-10-17T02:55:21.452Z,13.97
2022-10-17T03:00:25.591Z,13.97
2022-10-17T03:05:29.973Z,13.92
2022-10-17T03:10:32.279Z,13.79
2022-10-17T03:15:34.647Z,13.87
2022-10-17T03:20:36.987Z,13.96
2022-10-17T03:25:39.333Z,13.98
2022-10-17T03:30:41.487Z,13.83
2022-10-17T03:35:43.823Z,14.02
2022-10-17T03:40:55.546Z,13.98
2022-10-17T03:45:59.099Z,13.98
2022-10-17T03:51:05.945Z,13.84
2022-10-17T03:56:14.477Z,14.06
2022-10-17T04:01:18.357Z,14.09
2022-10-17T04:06:21.493Z,14.10
2022-10-17T04:11:23.910Z,14.02
2022-10-17T04:16:26.452Z,14.08
2022-10-17T04:21:30.080Z,14.14
2022-10-17T04:26:32.697Z,14.16
2022-10-17T04:31:35.465Z,14.05
2022-10-17T04:36:37.956Z,14.00
2022-10-17T04:41:40.239Z,14.09
2022-10-17T04:46:42.477Z,14.01
2022-10-17T04:51:44.736Z,14.11
2022-10-17T04:56:47.662Z,14.00
2022-10-17T05:01:50.297Z,13.91
2022-10-17T05:06:52.668Z,13.99
2022-10-17T05:11:54.902Z,14.00
2022-10-17T05:16:57.234Z,13.98
2022-10-17T05:21:59.446Z,14.11
2022-10-17T05:27:01.781Z,14.00
2022-10-17T05:32:04.161Z,14.11
2022-10-17T05:37:06.368Z,14.23
2022-10-17T05:42:08.735Z,14.10
2022-10-17T05:47:10.905Z,14.20
2022-10-17T05:52:13.322Z,14.30
2022-10-17T05:57:15.748Z,14.25
2022-10-17T06:02:18.249Z,14.37
2022-10-17T06:07:20.942Z,14.29
2022-10-17T06:12:23.296Z,14.42
2022-10-17T06:17:25.642Z,14.62
2022-10-17T06:22:28.643Z,14.79
2022-10-17T06:27:31.206Z,14.95
2022-10-17T06:32:33.356Z,14.96
2022-10-17T06:37:37.255Z,15.29
2022-10-17T06:42:39.773Z,15.32
2022-10-17T06:47:42.077Z,15.51
2022-10-17T06:52:44.235Z,15.78
2022-10-17T06:57:46.379Z,15.74
2022-10-17T07:02:48.732Z,15.84
2022-10-17T07:07:51.964Z,15.92
2022-10-17T07:12:54.289Z,15.97
2022-10-17T07:17:57.856Z,16.32
2022-10-17T07:23:00.470Z,16.37
2022-10-17T07:28:02.779Z,16.50
2022-10-17T07:33:05.052Z,16.69
2022-10-17T07:38:07.666Z,16.86
2022-10-17T07:43:09.875Z,16.92
2022-10-17T07:48:12.037Z,17.12
2022-10-17T07:53:14.608Z,17.25
2022-10-17T07:58:17.226Z,17.41
2022-10-17T08:03:19.579Z,17.53
2022-10-17T08:08:21.918Z,17.72
2022-10-17T08:13:24.335Z,17.90
2022-10-17T08:18:26.667Z,17.92
2022-10-17T08:23:29.522Z,18.22
2022-10-17T08:28:31.819Z,18.44
2022-10-17T08:33:34.402Z,18.52
2022-10-17T08:38:43.130Z,18.67
2022-10-17T08:44:10.934Z,18.70
2022-10-17T08:49:57.717Z,18.84
2022-10-17T08:55:00.127Z,19.09
2022-10-17T09:00:02.645Z,19.23
2022-10-17T09:05:32.065Z,19.39
2022-10-17T09:11:16.713Z,19.50
2022-10-17T09:16:54.119Z,19.63
2022-10-17T09:22:01.955Z,19.74
2022-10-17T09:27:04.459Z,19.77
2022-10-17T09:32:17.752Z,19.76
2022-10-17T09:37:23.041Z,19.81
2022-10-17T09:42:28.636Z,19.94
2022-10-17T09:47:39.762Z,19.88
2022-10-17T09:52:48.982Z,20.12
2022-10-17T09:57:59.794Z,20.19
2022-10-17T10:03:23.258Z,20.26
2022-10-17T10:08:33.248Z,20.39
2022-10-17T10:13:36.118Z,20.52
2022-10-17T10:18:38.590Z,19.97
2022-10-17T10:23:45.857Z,20.44
2022-10-17T10:28:58.563Z,20.47
2022-10-17T10:34:03.880Z,20.63
2022-10-17T10:39:07.083Z,20.85
2022-10-17T10:44:14.918Z,21.01
2022-10-17T10:49:33.678Z,20.94
2022-10-17T10:54:55.654Z,21.02
2022-10-17T11:00:19.981Z,21.19
2022-10-17T11:05:47.273Z,21.22
2022-10-17T11:11:27.120Z,21.47
2022-10-17T11:16:40.543Z,21.49
2022-10-17T11:22:07.402Z,21.74
2022-10-17T11:27:10.223Z,21.72
2022-10-17T11:32:20.258Z,21.68
2022-10-17T11:37:28.346Z,21.58
2022-10-17T11:42:30.709Z,21.86
2022-10-17T11:47:45.837Z,21.76
2022-10-17T11:53:04.943Z,21.87
2022-10-17T11:58:25.196Z,22.11
2022-10-17T12:03:50.995Z,22.17
2022-10-17T12:09:28.746Z,22.41
2022-10-17T12:14:47.239Z,22.50
2022-10-17T12:19:50.098Z,22.33
2022-10-17T12:24:55.412Z,22.48
2022-10-17T12:30:19.729Z,22.57
2022-10-17T12:35:24.662Z,22.69
2022-10-17T12:40:35.805Z,22.88
2022-10-17T12:45:49.835Z,22.97
2022-10-17T12:56:47.222Z,23.13
2022-10-17T13:01:55.990Z,23.14
2022-10-17T13:07:01.105Z,23.34
2022-10-17T13:12:06.910Z,23.27
2022-10-17T13:17:23.849Z,23.13
2022-10-17T13:22:33.791Z,23.19
2022-10-17T13:27:37.699Z,23.36
2022-10-17T13:32:41.925Z,23.54
2022-10-17T13:37:51.585Z,23.63
2022-10-17T13:42:58.499Z,23.83
2022-10-17T13:48:18.582Z,23.80
2022-10-17T13:53:27.029Z,24.00
2022-10-17T13:58:40.922Z,24.15
2022-10-17T14:03:49.868Z,24.23
2022-10-17T14:09:08.565Z,24.37
2022-10-17T14:14:23.798Z,24.51
2022-10-17T14:19:31.433Z,24.73
2022-10-17T14:24:35.994Z,24.68
2022-10-17T14:30:01.320Z,24.83
2022-10-17T14:35:30.285Z,24.87
2022-10-17T14:40:30.775Z,24.87
2022-10-17T14:45:36.055Z,24.75
2022-10-17T14:50:38.931Z,24.69
2022-10-17T14:55:54.570Z,24.70
2022-10-17T15:00:58.602Z,24.43
2022-10-17T15:06:20.351Z,24.09
2022-10-17T15:11:22.585Z,23.64
2022-10-17T15:16:27.590Z,23.00
2022-10-17T15:21:47.258Z,22.60
2022-10-17T15:26:50.262Z,22.12
2022-10-17T15:31:52.536Z,21.79
2022-10-17T15:36:54.708Z,21.45
2022-10-17T15:41:56.918Z,21.18
2022-10-17T15:46:59.159Z,21.01
2022-10-17T15:52:01.311Z,20.88
2022-10-17T15:57:03.772Z,20.62
2022-10-17T16:02:13.745Z,20.35
2022-10-17T16:07:16.034Z,20.18
2022-10-17T16:17:30.102Z,19.92
2022-10-17T16:22:37.014Z,19.67
2022-10-17T16:27:39.716Z,19.49
2022-10-17T16:32:42.172Z,19.45
2022-10-17T16:37:44.547Z,19.25
2022-10-17T16:42:46.877Z,19.12
2022-10-17T16:47:50.099Z,19.06
2022-10-17T16:52:52.290Z,18.88
2022-10-17T16:57:54.455Z,18.72
2022-10-17T17:02:56.660Z,18.72
2022-10-17T17:07:59.780Z,18.50
2022-10-17T17:13:02.647Z,18.43
2022-10-17T17:18:06.170Z,18.43
2022-10-17T17:23:13.726Z,18.34
2022-10-17T17:28:17.990Z,17.99
2022-10-17T17:33:20.345Z,17.85
2022-10-17T17:38:22.840Z,17.89
2022-10-17T17:43:25.862Z,17.68
2022-10-17T17:48:28.065Z,17.65
2022-10-17T17:53:30.249Z,17.36
2022-10-17T17:58:33.917Z,17.39
2022-10-17T18:03:36.124Z,17.17
2022-10-17T18:08:38.417Z,17.13
2022-10-17T18:13:41.039Z,17.02
2022-10-17T18:18:45.162Z,16.91
2022-10-17T18:23:48.795Z,16.42
2022-10-17T18:28:51.216Z,16.57
2022-10-17T18:33:55.178Z,16.66
2022-10-17T18:38:59.475Z,16.52
2022-10-17T18:44:03.532Z,16.56
2022-10-17T18:49:05.980Z,16.35
2022-10-17T18:54:13.392Z,16.42
2022-10-17T18:59:15.809Z,16.30
2022-10-17T19:04:18.053Z,16.20
2022-10-17T19:09:20.261Z,16.18
2022-10-17T19:14:22.801Z,16.08
2022-10-17T19:19:26.663Z,16.14
2022-10-17T19:24:28.865Z,16.03
2022-10-17T19:29:32.376Z,15.94
2022-10-17T19:34:35.367Z,15.95
2022-10-17T19:39:37.869Z,15.85
2022-10-17T19:44:40.074Z,15.74
2022-10-17T19:49:45.365Z,15.66
2022-10-17T19:54:49.926Z,15.68
2022-10-17T19:59:53.730Z,15.54
2022-10-17T20:10:23.810Z,15.30
2022-10-17T20:15:26.018Z,15.38
2022-10-17T20:20:28.890Z,15.14
2022-10-17T20:25:31.198Z,15.05
2022-10-17T20:30:34.080Z,15.07
2022-10-17T20:35:41.705Z,14.99
2022-10-17T20:40:44.441Z,15.01
2022-10-17T20:45:51.381Z,14.92
2022-10-17T20:50:54.553Z,14.84
2022-10-17T20:56:05.245Z,14.84
2022-10-17T21:01:09.880Z,14.71
2022-10-17T21:06:12.383Z,14.67
2022-10-17T21:11:16.716Z,14.71
2022-10-17T21:16:19.529Z,14.68
2022-10-17T21:21:27.834Z,14.53
2022-10-17T21:26:33.132Z,14.45
2022-10-17T21:31:39.915Z,14.23
2022-10-17T21:36:42.493Z,14.31
2022-10-17T21:41:45.525Z,14.04
2022-10-17T21:46:48.610Z,14.10
2022-10-17T21:51:52.391Z,13.97
2022-10-17T21:56:54.796Z,13.85
2022-10-17T22:01:57.157Z,13.77
2022-10-17T22:06:59.642Z,13.78
2022-10-17T22:12:01.877Z,13.87
2022-10-17T22:17:04.332Z,13.87
2022-10-17T22:22:06.710Z,13.75
2022-10-17T22:27:10.735Z,13.88
2022-10-17T22:32:13.119Z,13.76
2022-10-17T22:37:15.821Z,13.86
2022-10-17T22:42:18.251Z,13.83
2022-10-17T22:47:20.592Z,13.75
2022-10-17T22:52:22.888Z,13.66
2022-10-17T22:57:25.227Z,13.66
2022-10-17T23:02:27.534Z,13.80
2022-10-17T23:07:29.845Z,13.85
2022-10-17T23:12:32.405Z,13.77
2022-10-17T23:17:34.871Z,13.57
2022-10-17T23:22:37.138Z,13.61
2022-10-17T23:27:39.448Z,13.73
2022-10-17T23:32:42.680Z,13.57
2022-10-17T23:37:44.984Z,13.77
2022-10-17T23:42:47.302Z,13.60
2022-10-17T23:47:49.635Z,13.62
2022-10-17T23:52:51.896Z,13.54
2022-10-17T23:57:54.303Z,13.62
